sensor_id;sensor_type;location;lat;lon;timestamp;pressure;altitude;pressure_sealevel;temperature;humidity
2711;BME280;20721;47.402;8.550;2023-04-25T00:00:43;95569;;;12.31;45.60
2711;BME280;20721;47.402;8.550;2023-04-25T00:01:44;95571;;;12.26;45.53
2711;BME280;20721;47.402;8.550;2023-04-25T00:02:44;95573;;;12.19;45.55
2711;BME280;20721;47.402;8.550;2023-04-25T00:03:44;95578;;;12.12;45.27
2711;BME280;20721;47.402;8.550;2023-04-25T00:04:44;95580;;;12.10;45.41
2711;BME280;20721;47.402;8.550;2023-04-25T00:05:45;95581;;;12.12;45.45
2711;BME280;20721;47.402;8.550;2023-04-25T00:06:44;95584;;;12.14;45.54
2711;BME280;20721;47.402;8.550;2023-04-25T00:08:44;95580;;;12.17;45.60
2711;BME280;20721;47.402;8.550;2023-04-25T00:09:44;95579;;;12.20;45.68
2711;BME280;20721;47.402;8.550;2023-04-25T00:10:44;95579;;;12.23;45.70
2711;BME280;20721;47.402;8.550;2023-04-25T00:11:44;95578;;;12.24;45.59
2711;BME280;20721;47.402;8.550;2023-04-25T00:12:44;95580;;;12.25;45.12
2711;BME280;20721;47.402;8.550;2023-04-25T00:13:43;95574;;;12.22;45.12
2711;BME280;20721;47.402;8.550;2023-04-25T00:14:45;95575;;;12.23;45.26
2711;BME280;20721;47.402;8.550;2023-04-25T00:15:44;95574;;;12.22;45.40
2711;BME280;20721;47.402;8.550;2023-04-25T00:16:44;95573;;;12.21;45.25
2711;BME280;20721;47.402;8.550;2023-04-25T00:17:45;95570;;;12.23;45.59
2711;BME280;20721;47.402;8.550;2023-04-25T00:18:46;95568;;;12.24;45.64
2711;BME280;20721;47.402;8.550;2023-04-25T00:20:46;95570;;;12.25;45.29
2711;BME280;20721;47.402;8.550;2023-04-25T00:21:46;95570;;;12.24;45.26
2711;BME280;20721;47.402;8.550;2023-04-25T00:22:44;95570;;;12.23;45.37
2711;BME280;20721;47.402;8.550;2023-04-25T00:23:46;95569;;;12.22;45.18
2711;BME280;20721;47.402;8.550;2023-04-25T00:24:44;95569;;;12.21;45.23
2711;BME280;20721;47.402;8.550;2023-04-25T00:25:44;95569;;;12.19;45.20
2711;BME280;20721;47.402;8.550;2023-04-25T00:26:44;95569;;;12.10;45.55
2711;BME280;20721;47.402;8.550;2023-04-25T00:27:44;95571;;;12.04;45.11
2711;BME280;20721;47.402;8.550;2023-04-25T00:28:44;95568;;;12.01;45.36
2711;BME280;20721;47.402;8.550;2023-04-25T00:29:44;95574;;;11.96;45.27
2711;BME280;20721;47.402;8.550;2023-04-25T00:30:44;95571;;;11.85;45.18
2711;BME280;20721;47.402;8.550;2023-04-25T00:31:44;95570;;;11.84;45.45
2711;BME280;20721;47.402;8.550;2023-04-25T00:32:44;95568;;;11.79;45.63
2711;BME280;20721;47.402;8.550;2023-04-25T00:33:46;95568;;;11.84;45.71
2711;BME280;20721;47.402;8.550;2023-04-25T00:34:44;95571;;;11.83;45.57
2711;BME280;20721;47.402;8.550;2023-04-25T00:35:44;95569;;;11.86;45.51
2711;BME280;20721;47.402;8.550;2023-04-25T00:36:44;95570;;;11.83;45.44
2711;BME280;20721;47.402;8.550;2023-04-25T00:38:44;95565;;;11.84;45.55
2711;BME280;20721;47.402;8.550;2023-04-25T00:40:44;95565;;;11.85;45.84
2711;BME280;20721;47.402;8.550;2023-04-25T00:41:44;95569;;;11.87;45.58
2711;BME280;20721;47.402;8.550;2023-04-25T00:42:44;95562;;;11.88;45.40
2711;BME280;20721;47.402;8.550;2023-04-25T00:43:44;95564;;;11.90;45.43
2711;BME280;20721;47.402;8.550;2023-04-25T00:44:44;95563;;;11.91;45.52
2711;BME280;20721;47.402;8.550;2023-04-25T00:45:44;95564;;;11.93;45.55
2711;BME280;20721;47.402;8.550;2023-04-25T00:46:44;95569;;;11.95;45.47
2711;BME280;20721;47.402;8.550;2023-04-25T00:47:44;95571;;;11.94;45.53
2711;BME280;20721;47.402;8.550;2023-04-25T00:48:44;95575;;;11.92;45.44
2711;BME280;20721;47.402;8.550;2023-04-25T00:49:44;95574;;;11.91;45.48
2711;BME280;20721;47.402;8.550;2023-04-25T00:51:44;95575;;;11.93;45.89
2711;BME280;20721;47.402;8.550;2023-04-25T00:52:44;95576;;;11.94;45.99
2711;BME280;20721;47.402;8.550;2023-04-25T00:53:44;95577;;;11.95;46.12
2711;BME280;20721;47.402;8.550;2023-04-25T00:54:44;95578;;;11.96;46.30
2711;BME280;20721;47.402;8.550;2023-04-25T00:57:44;95583;;;11.97;46.32
2711;BME280;20721;47.402;8.550;2023-04-25T01:00:45;95583;;;11.95;46.66
2711;BME280;20721;47.402;8.550;2023-04-25T01:01:45;95581;;;11.92;46.50
2711;BME280;20721;47.402;8.550;2023-04-25T01:03:44;95587;;;11.91;46.61
2711;BME280;20721;47.402;8.550;2023-04-25T01:04:44;95585;;;11.90;46.53
2711;BME280;20721;47.402;8.550;2023-04-25T01:05:44;95589;;;11.89;46.75
2711;BME280;20721;47.402;8.550;2023-04-25T01:09:44;95579;;;11.91;47.00
2711;BME280;20721;47.402;8.550;2023-04-25T01:13:44;95570;;;11.87;47.07
2711;BME280;20721;47.402;8.550;2023-04-25T01:14:44;95574;;;11.83;47.29
2711;BME280;20721;47.402;8.550;2023-04-25T01:15:44;95572;;;11.80;47.50
2711;BME280;20721;47.402;8.550;2023-04-25T01:16:44;95572;;;11.77;47.71
2711;BME280;20721;47.402;8.550;2023-04-25T01:17:44;95568;;;11.73;47.83
2711;BME280;20721;47.402;8.550;2023-04-25T01:18:45;95567;;;11.71;48.04
2711;BME280;20721;47.402;8.550;2023-04-25T01:19:45;95569;;;11.68;48.17
2711;BME280;20721;47.402;8.550;2023-04-25T01:20:44;95570;;;11.66;48.25
2711;BME280;20721;47.402;8.550;2023-04-25T01:21:44;95571;;;11.65;48.54
2711;BME280;20721;47.402;8.550;2023-04-25T01:22:44;95570;;;11.61;48.56
2711;BME280;20721;47.402;8.550;2023-04-25T01:23:44;95567;;;11.58;48.60
2711;BME280;20721;47.402;8.550;2023-04-25T01:24:44;95566;;;11.54;48.77
2711;BME280;20721;47.402;8.550;2023-04-25T01:25:44;95571;;;11.50;48.85
2711;BME280;20721;47.402;8.550;2023-04-25T01:26:49;95566;;;11.47;49.02
2711;BME280;20721;47.402;8.550;2023-04-25T01:27:44;95566;;;11.45;49.11
2711;BME280;20721;47.402;8.550;2023-04-25T01:28:44;95564;;;11.43;49.17
2711;BME280;20721;47.402;8.550;2023-04-25T01:29:44;95562;;;11.42;49.44
2711;BME280;20721;47.402;8.550;2023-04-25T01:30:44;95566;;;11.38;49.50
2711;BME280;20721;47.402;8.550;2023-04-25T01:31:44;95564;;;11.36;49.48
2711;BME280;20721;47.402;8.550;2023-04-25T01:33:44;95564;;;11.32;49.77
2711;BME280;20721;47.402;8.550;2023-04-25T01:34:44;95564;;;11.29;50.06
2711;BME280;20721;47.402;8.550;2023-04-25T01:35:44;95563;;;11.27;49.80
2711;BME280;20721;47.402;8.550;2023-04-25T01:36:44;95562;;;11.21;49.86
2711;BME280;20721;47.402;8.550;2023-04-25T01:37:44;95566;;;11.19;49.84
2711;BME280;20721;47.402;8.550;2023-04-25T01:38:46;95567;;;11.17;49.91
2711;BME280;20721;47.402;8.550;2023-04-25T01:39:44;95566;;;11.18;49.96
2711;BME280;20721;47.402;8.550;2023-04-25T01:40:44;95563;;;11.20;50.04
2711;BME280;20721;47.402;8.550;2023-04-25T01:45:44;95552;;;11.15;49.76
2711;BME280;20721;47.402;8.550;2023-04-25T01:46:44;95552;;;11.14;49.56
2711;BME280;20721;47.402;8.550;2023-04-25T01:48:44;95556;;;11.17;50.11
2711;BME280;20721;47.402;8.550;2023-04-25T01:49:44;95557;;;11.22;50.03
2711;BME280;20721;47.402;8.550;2023-04-25T01:50:44;95556;;;11.26;50.03
2711;BME280;20721;47.402;8.550;2023-04-25T01:51:44;95555;;;11.27;50.12
2711;BME280;20721;47.402;8.550;2023-04-25T01:52:44;95557;;;11.30;50.21
2711;BME280;20721;47.402;8.550;2023-04-25T01:53:44;95558;;;11.29;50.22
2711;BME280;20721;47.402;8.550;2023-04-25T01:55:44;95554;;;11.30;50.17
2711;BME280;20721;47.402;8.550;2023-04-25T01:56:49;95553;;;11.32;50.24
2711;BME280;20721;47.402;8.550;2023-04-25T01:57:44;95555;;;11.33;50.26
2711;BME280;20721;47.402;8.550;2023-04-25T01:59:44;95551;;;11.32;50.12
2711;BME280;20721;47.402;8.550;2023-04-25T02:00:44;95546;;;11.30;50.18
2711;BME280;20721;47.402;8.550;2023-04-25T02:02:44;95545;;;11.27;50.33
2711;BME280;20721;47.402;8.550;2023-04-25T02:03:44;95544;;;11.25;50.36
2711;BME280;20721;47.402;8.550;2023-04-25T02:04:44;95543;;;11.23;50.38
2711;BME280;20721;47.402;8.550;2023-04-25T02:05:44;95540;;;11.21;50.49
2711;BME280;20721;47.402;8.550;2023-04-25T02:06:44;95537;;;11.18;50.43
2711;BME280;20721;47.402;8.550;2023-04-25T02:07:44;95539;;;11.17;50.39
2711;BME280;20721;47.402;8.550;2023-04-25T02:08:44;95540;;;11.15;50.24
2711;BME280;20721;47.402;8.550;2023-04-25T02:09:44;95542;;;11.14;50.09
2711;BME280;20721;47.402;8.550;2023-04-25T02:10:44;95539;;;11.10;50.19
2711;BME280;20721;47.402;8.550;2023-04-25T02:11:44;95541;;;11.09;50.24
2711;BME280;20721;47.402;8.550;2023-04-25T02:12:44;95542;;;11.07;50.34
2711;BME280;20721;47.402;8.550;2023-04-25T02:14:44;95544;;;11.08;50.45
2711;BME280;20721;47.402;8.550;2023-04-25T02:16:44;95550;;;11.07;50.24
2711;BME280;20721;47.402;8.550;2023-04-25T02:17:45;95547;;;11.06;50.38
2711;BME280;20721;47.402;8.550;2023-04-25T02:18:45;95544;;;11.05;50.48
2711;BME280;20721;47.402;8.550;2023-04-25T02:22:44;95544;;;11.03;50.85
2711;BME280;20721;47.402;8.550;2023-04-25T02:23:48;95540;;;11.05;50.83
2711;BME280;20721;47.402;8.550;2023-04-25T02:24:46;95540;;;11.04;51.05
2711;BME280;20721;47.402;8.550;2023-04-25T02:25:44;95541;;;11.03;51.19
2711;BME280;20721;47.402;8.550;2023-04-25T02:26:44;95540;;;10.96;51.24
2711;BME280;20721;47.402;8.550;2023-04-25T02:27:44;95537;;;10.91;51.33
2711;BME280;20721;47.402;8.550;2023-04-25T02:28:44;95535;;;10.83;51.36
2711;BME280;20721;47.402;8.550;2023-04-25T02:29:44;95540;;;10.79;51.50
2711;BME280;20721;47.402;8.550;2023-04-25T02:31:44;95531;;;10.72;51.59
2711;BME280;20721;47.402;8.550;2023-04-25T02:32:44;95533;;;10.64;51.71
2711;BME280;20721;47.402;8.550;2023-04-25T02:33:44;95535;;;10.55;51.87
2711;BME280;20721;47.402;8.550;2023-04-25T02:34:44;95532;;;10.45;52.21
2711;BME280;20721;47.402;8.550;2023-04-25T02:36:44;95531;;;10.46;52.29
2711;BME280;20721;47.402;8.550;2023-04-25T02:37:44;95529;;;10.49;52.31
2711;BME280;20721;47.402;8.550;2023-04-25T02:38:44;95529;;;10.53;52.10
2711;BME280;20721;47.402;8.550;2023-04-25T02:39:44;95527;;;10.56;52.10
2711;BME280;20721;47.402;8.550;2023-04-25T02:40:44;95528;;;10.61;52.04
2711;BME280;20721;47.402;8.550;2023-04-25T02:41:44;95525;;;10.66;52.02
2711;BME280;20721;47.402;8.550;2023-04-25T02:42:45;95531;;;10.68;51.77
2711;BME280;20721;47.402;8.550;2023-04-25T02:43:44;95529;;;10.72;51.70
2711;BME280;20721;47.402;8.550;2023-04-25T02:44:44;95525;;;10.75;51.87
2711;BME280;20721;47.402;8.550;2023-04-25T02:45:44;95525;;;10.77;51.75
2711;BME280;20721;47.402;8.550;2023-04-25T02:46:44;95529;;;10.80;51.79
2711;BME280;20721;47.402;8.550;2023-04-25T02:48:44;95526;;;10.83;51.67
2711;BME280;20721;47.402;8.550;2023-04-25T02:49:45;95526;;;10.85;51.52
2711;BME280;20721;47.402;8.550;2023-04-25T02:50:45;95528;;;10.87;51.02
2711;BME280;20721;47.402;8.550;2023-04-25T02:51:44;95524;;;10.88;51.08
2711;BME280;20721;47.402;8.550;2023-04-25T02:52:45;95523;;;10.89;51.01
2711;BME280;20721;47.402;8.550;2023-04-25T02:54:44;95521;;;10.91;50.69
2711;BME280;20721;47.402;8.550;2023-04-25T02:55:44;95518;;;10.88;50.73
2711;BME280;20721;47.402;8.550;2023-04-25T02:58:44;95517;;;10.85;50.93
2711;BME280;20721;47.402;8.550;2023-04-25T02:59:44;95513;;;10.79;51.26
2711;BME280;20721;47.402;8.550;2023-04-25T03:00:44;95511;;;10.68;51.23
2711;BME280;20721;47.402;8.550;2023-04-25T03:01:46;95508;;;10.57;51.31
2711;BME280;20721;47.402;8.550;2023-04-25T03:02:44;95509;;;10.51;51.25
2711;BME280;20721;47.402;8.550;2023-04-25T03:03:44;95509;;;10.50;51.43
2711;BME280;20721;47.402;8.550;2023-04-25T03:04:44;95506;;;10.51;51.70
2711;BME280;20721;47.402;8.550;2023-04-25T03:06:44;95507;;;10.52;51.68
2711;BME280;20721;47.402;8.550;2023-04-25T03:07:45;95506;;;10.55;51.70
2711;BME280;20721;47.402;8.550;2023-04-25T03:08:44;95503;;;10.57;51.71
2711;BME280;20721;47.402;8.550;2023-04-25T03:09:44;95501;;;10.61;51.56
2711;BME280;20721;47.402;8.550;2023-04-25T03:10:44;95501;;;10.59;51.42
2711;BME280;20721;47.402;8.550;2023-04-25T03:11:44;95501;;;10.56;51.41
2711;BME280;20721;47.402;8.550;2023-04-25T03:12:44;95504;;;10.55;51.48
2711;BME280;20721;47.402;8.550;2023-04-25T03:13:44;95501;;;10.56;51.60
2711;BME280;20721;47.402;8.550;2023-04-25T03:16:45;95502;;;10.58;51.36
2711;BME280;20721;47.402;8.550;2023-04-25T03:17:44;95503;;;10.60;51.38
2711;BME280;20721;47.402;8.550;2023-04-25T03:18:44;95508;;;10.62;51.59
2711;BME280;20721;47.402;8.550;2023-04-25T03:19:44;95507;;;10.63;51.74
2711;BME280;20721;47.402;8.550;2023-04-25T03:20:44;95510;;;10.62;51.76
2711;BME280;20721;47.402;8.550;2023-04-25T03:21:44;95507;;;10.60;51.92
2711;BME280;20721;47.402;8.550;2023-04-25T03:22:44;95508;;;10.58;52.08
2711;BME280;20721;47.402;8.550;2023-04-25T03:23:44;95510;;;10.56;52.21
2711;BME280;20721;47.402;8.550;2023-04-25T03:24:44;95508;;;10.52;52.40
2711;BME280;20721;47.402;8.550;2023-04-25T03:25:44;95510;;;10.49;52.43
2711;BME280;20721;47.402;8.550;2023-04-25T03:26:44;95508;;;10.44;52.54
2711;BME280;20721;47.402;8.550;2023-04-25T03:27:44;95509;;;10.38;52.51
2711;BME280;20721;47.402;8.550;2023-04-25T03:28:44;95507;;;10.34;52.59
2711;BME280;20721;47.402;8.550;2023-04-25T03:29:44;95511;;;10.30;52.74
2711;BME280;20721;47.402;8.550;2023-04-25T03:30:44;95510;;;10.25;52.93
2711;BME280;20721;47.402;8.550;2023-04-25T03:31:44;95511;;;10.17;52.80
2711;BME280;20721;47.402;8.550;2023-04-25T03:32:44;95509;;;10.14;53.04
2711;BME280;20721;47.402;8.550;2023-04-25T03:33:44;95513;;;10.11;53.19
2711;BME280;20721;47.402;8.550;2023-04-25T03:34:44;95508;;;10.08;53.38
2711;BME280;20721;47.402;8.550;2023-04-25T03:35:44;95506;;;10.06;53.40
2711;BME280;20721;47.402;8.550;2023-04-25T03:37:45;95505;;;10.03;53.12
2711;BME280;20721;47.402;8.550;2023-04-25T03:38:48;95503;;;9.95;52.64
2711;BME280;20721;47.402;8.550;2023-04-25T03:39:44;95505;;;9.86;53.03
2711;BME280;20721;47.402;8.550;2023-04-25T03:40:44;95503;;;9.78;53.37
2711;BME280;20721;47.402;8.550;2023-04-25T03:41:44;95500;;;9.76;53.56
2711;BME280;20721;47.402;8.550;2023-04-25T03:42:45;95499;;;9.78;53.50
2711;BME280;20721;47.402;8.550;2023-04-25T03:43:44;95500;;;9.81;53.67
2711;BME280;20721;47.402;8.550;2023-04-25T03:44:44;95500;;;9.84;53.86
2711;BME280;20721;47.402;8.550;2023-04-25T03:46:44;95495;;;9.87;53.68
2711;BME280;20721;47.402;8.550;2023-04-25T03:47:44;95493;;;9.90;53.39
2711;BME280;20721;47.402;8.550;2023-04-25T03:48:44;95494;;;9.91;53.03
2711;BME280;20721;47.402;8.550;2023-04-25T03:49:44;95496;;;9.94;53.20
2711;BME280;20721;47.402;8.550;2023-04-25T03:53:44;95494;;;9.93;52.67
2711;BME280;20721;47.402;8.550;2023-04-25T03:55:44;95494;;;9.95;52.44
2711;BME280;20721;47.402;8.550;2023-04-25T03:56:44;95496;;;9.93;52.51
2711;BME280;20721;47.402;8.550;2023-04-25T03:57:44;95494;;;9.89;52.54
2711;BME280;20721;47.402;8.550;2023-04-25T03:58:44;95493;;;9.83;52.54
2711;BME280;20721;47.402;8.550;2023-04-25T03:59:44;95491;;;9.80;52.71
2711;BME280;20721;47.402;8.550;2023-04-25T04:00:44;95491;;;9.81;52.75
2711;BME280;20721;47.402;8.550;2023-04-25T04:01:44;95491;;;9.79;52.60
2711;BME280;20721;47.402;8.550;2023-04-25T04:02:46;95493;;;9.81;52.66
2711;BME280;20721;47.402;8.550;2023-04-25T04:03:45;95489;;;9.83;52.57
2711;BME280;20721;47.402;8.550;2023-04-25T04:05:45;95487;;;9.84;52.49
2711;BME280;20721;47.402;8.550;2023-04-25T04:06:45;95489;;;9.87;52.53
2711;BME280;20721;47.402;8.550;2023-04-25T04:07:44;95488;;;9.91;52.58
2711;BME280;20721;47.402;8.550;2023-04-25T04:08:44;95493;;;9.93;52.74
2711;BME280;20721;47.402;8.550;2023-04-25T04:09:44;95488;;;9.94;52.59
2711;BME280;20721;47.402;8.550;2023-04-25T04:10:44;95492;;;9.97;52.40
2711;BME280;20721;47.402;8.550;2023-04-25T04:11:44;95490;;;9.92;52.47
2711;BME280;20721;47.402;8.550;2023-04-25T04:12:44;95487;;;9.86;52.53
2711;BME280;20721;47.402;8.550;2023-04-25T04:13:44;95486;;;9.89;52.44
2711;BME280;20721;47.402;8.550;2023-04-25T04:15:47;95490;;;9.79;52.40
2711;BME280;20721;47.402;8.550;2023-04-25T04:16:44;95492;;;9.71;52.62
2711;BME280;20721;47.402;8.550;2023-04-25T04:17:45;95491;;;9.68;52.80
2711;BME280;20721;47.402;8.550;2023-04-25T04:18:45;95489;;;9.69;52.81
2711;BME280;20721;47.402;8.550;2023-04-25T04:19:44;95489;;;9.72;52.57
2711;BME280;20721;47.402;8.550;2023-04-25T04:20:44;95492;;;9.73;52.45
2711;BME280;20721;47.402;8.550;2023-04-25T04:21:45;95486;;;9.71;52.65
2711;BME280;20721;47.402;8.550;2023-04-25T04:23:44;95486;;;9.72;52.78
2711;BME280;20721;47.402;8.550;2023-04-25T04:24:46;95484;;;9.68;52.74
2711;BME280;20721;47.402;8.550;2023-04-25T04:25:44;95479;;;9.59;52.73
2711;BME280;20721;47.402;8.550;2023-04-25T04:26:44;95478;;;9.56;52.82
2711;BME280;20721;47.402;8.550;2023-04-25T04:27:45;95481;;;9.49;52.63
2711;BME280;20721;47.402;8.550;2023-04-25T04:28:44;95485;;;9.40;52.74
2711;BME280;20721;47.402;8.550;2023-04-25T04:29:45;95482;;;9.33;53.13
2711;BME280;20721;47.402;8.550;2023-04-25T04:30:45;95481;;;9.32;53.27
2711;BME280;20721;47.402;8.550;2023-04-25T04:31:45;95482;;;9.35;53.21
2711;BME280;20721;47.402;8.550;2023-04-25T04:32:44;95479;;;9.39;52.92
2711;BME280;20721;47.402;8.550;2023-04-25T04:33:47;95476;;;9.44;52.85
2711;BME280;20721;47.402;8.550;2023-04-25T04:34:44;95481;;;9.47;52.72
2711;BME280;20721;47.402;8.550;2023-04-25T04:35:45;95481;;;9.52;52.78
2711;BME280;20721;47.402;8.550;2023-04-25T04:36:46;95483;;;9.58;52.60
2711;BME280;20721;47.402;8.550;2023-04-25T04:37:45;95484;;;9.62;52.67
2711;BME280;20721;47.402;8.550;2023-04-25T04:38:45;95487;;;9.67;52.73
2711;BME280;20721;47.402;8.550;2023-04-25T04:39:45;95487;;;9.70;52.60
2711;BME280;20721;47.402;8.550;2023-04-25T04:40:44;95484;;;9.72;52.73
2711;BME280;20721;47.402;8.550;2023-04-25T04:41:45;95482;;;9.76;52.54
2711;BME280;20721;47.402;8.550;2023-04-25T04:42:45;95483;;;9.78;52.10
2711;BME280;20721;47.402;8.550;2023-04-25T04:43:44;95483;;;9.81;52.18
2711;BME280;20721;47.402;8.550;2023-04-25T04:44:44;95482;;;9.83;52.05
2711;BME280;20721;47.402;8.550;2023-04-25T04:46:44;95481;;;9.85;52.07
2711;BME280;20721;47.402;8.550;2023-04-25T04:48:45;95478;;;9.87;51.88
2711;BME280;20721;47.402;8.550;2023-04-25T04:49:44;95478;;;9.90;51.81
2711;BME280;20721;47.402;8.550;2023-04-25T04:50:45;95483;;;9.93;51.64
2711;BME280;20721;47.402;8.550;2023-04-25T04:51:44;95479;;;9.97;51.73
2711;BME280;20721;47.402;8.550;2023-04-25T04:52:47;95477;;;9.99;52.06
2711;BME280;20721;47.402;8.550;2023-04-25T04:53:44;95481;;;10.02;52.27
2711;BME280;20721;47.402;8.550;2023-04-25T04:54:44;95478;;;10.05;52.44
2711;BME280;20721;47.402;8.550;2023-04-25T04:55:46;95478;;;10.09;52.52
2711;BME280;20721;47.402;8.550;2023-04-25T04:56:44;95475;;;10.10;52.64
2711;BME280;20721;47.402;8.550;2023-04-25T04:57:44;95476;;;10.12;52.82
2711;BME280;20721;47.402;8.550;2023-04-25T05:01:45;95475;;;10.14;52.27
2711;BME280;20721;47.402;8.550;2023-04-25T05:02:45;95476;;;10.16;52.40
2711;BME280;20721;47.402;8.550;2023-04-25T05:03:45;95474;;;10.18;52.53
2711;BME280;20721;47.402;8.550;2023-04-25T05:05:45;95475;;;10.21;52.55
2711;BME280;20721;47.402;8.550;2023-04-25T05:06:47;95474;;;10.27;52.42
2711;BME280;20721;47.402;8.550;2023-04-25T05:07:44;95477;;;10.29;51.67
2711;BME280;20721;47.402;8.550;2023-04-25T05:08:44;95476;;;10.32;51.57
2711;BME280;20721;47.402;8.550;2023-04-25T05:09:44;95473;;;10.35;51.57
2711;BME280;20721;47.402;8.550;2023-04-25T05:10:44;95477;;;10.39;51.56
2711;BME280;20721;47.402;8.550;2023-04-25T05:11:44;95475;;;10.46;51.58
2711;BME280;20721;47.402;8.550;2023-04-25T05:12:45;95474;;;10.54;51.68
2711;BME280;20721;47.402;8.550;2023-04-25T05:13:45;95477;;;10.63;51.50
2711;BME280;20721;47.402;8.550;2023-04-25T05:14:44;95474;;;10.70;51.28
2711;BME280;20721;47.402;8.550;2023-04-25T05:15:44;95477;;;10.76;51.18
2711;BME280;20721;47.402;8.550;2023-04-25T05:16:44;95479;;;10.84;51.23
2711;BME280;20721;47.402;8.550;2023-04-25T05:17:44;95480;;;10.92;51.45
2711;BME280;20721;47.402;8.550;2023-04-25T05:18:44;95477;;;11.01;51.55
2711;BME280;20721;47.402;8.550;2023-04-25T05:19:44;95473;;;11.04;51.40
2711;BME280;20721;47.402;8.550;2023-04-25T05:20:44;95472;;;11.07;51.80
2711;BME280;20721;47.402;8.550;2023-04-25T05:21:44;95474;;;11.14;51.66
2711;BME280;20721;47.402;8.550;2023-04-25T05:22:45;95475;;;11.20;51.68
2711;BME280;20721;47.402;8.550;2023-04-25T05:23:44;95475;;;11.24;52.10
2711;BME280;20721;47.402;8.550;2023-04-25T05:24:44;95473;;;11.30;51.92
2711;BME280;20721;47.402;8.550;2023-04-25T05:25:44;95473;;;11.35;51.64
2711;BME280;20721;47.402;8.550;2023-04-25T05:26:44;95475;;;11.39;51.64
2711;BME280;20721;47.402;8.550;2023-04-25T05:27:44;95473;;;11.44;52.91
2711;BME280;20721;47.402;8.550;2023-04-25T05:28:44;95478;;;11.47;52.06
2711;BME280;20721;47.402;8.550;2023-04-25T05:29:44;95474;;;11.46;51.63
2711;BME280;20721;47.402;8.550;2023-04-25T05:30:44;95475;;;11.48;51.58
2711;BME280;20721;47.402;8.550;2023-04-25T05:31:44;95478;;;11.49;51.60
2711;BME280;20721;47.402;8.550;2023-04-25T05:32:46;95481;;;11.47;52.60
2711;BME280;20721;47.402;8.550;2023-04-25T05:33:44;95482;;;11.49;51.81
2711;BME280;20721;47.402;8.550;2023-04-25T05:34:45;95480;;;11.51;51.52
2711;BME280;20721;47.402;8.550;2023-04-25T05:35:44;95480;;;11.52;51.56
2711;BME280;20721;47.402;8.550;2023-04-25T05:37:44;95485;;;11.50;51.38
2711;BME280;20721;47.402;8.550;2023-04-25T05:38:45;95483;;;11.49;51.61
2711;BME280;20721;47.402;8.550;2023-04-25T05:40:44;95481;;;11.50;51.69
2711;BME280;20721;47.402;8.550;2023-04-25T05:41:44;95479;;;11.49;51.79
2711;BME280;20721;47.402;8.550;2023-04-25T05:42:44;95471;;;11.52;51.60
2711;BME280;20721;47.402;8.550;2023-04-25T05:43:46;95475;;;11.54;51.62
2711;BME280;20721;47.402;8.550;2023-04-25T05:44:45;95473;;;11.56;51.78
2711;BME280;20721;47.402;8.550;2023-04-25T05:45:44;95476;;;11.61;51.86
2711;BME280;20721;47.402;8.550;2023-04-25T05:46:44;95474;;;11.66;51.92
2711;BME280;20721;47.402;8.550;2023-04-25T05:47:45;95471;;;11.71;51.61
2711;BME280;20721;47.402;8.550;2023-04-25T05:48:44;95470;;;11.74;51.84
2711;BME280;20721;47.402;8.550;2023-04-25T05:49:44;95471;;;11.76;51.00
2711;BME280;20721;47.402;8.550;2023-04-25T05:50:44;95469;;;11.77;49.84
2711;BME280;20721;47.402;8.550;2023-04-25T05:51:44;95470;;;11.78;49.59
2711;BME280;20721;47.402;8.550;2023-04-25T05:52:44;95469;;;11.77;49.16
2711;BME280;20721;47.402;8.550;2023-04-25T05:53:45;95470;;;11.81;49.05
2711;BME280;20721;47.402;8.550;2023-04-25T05:54:45;95468;;;11.77;49.04
2711;BME280;20721;47.402;8.550;2023-04-25T05:55:44;95466;;;11.72;48.67
2711;BME280;20721;47.402;8.550;2023-04-25T05:56:44;95466;;;11.69;48.99
2711;BME280;20721;47.402;8.550;2023-04-25T05:58:44;95464;;;11.72;49.39
2711;BME280;20721;47.402;8.550;2023-04-25T05:59:44;95472;;;11.78;49.25
2711;BME280;20721;47.402;8.550;2023-04-25T06:00:46;95467;;;11.74;48.76
2711;BME280;20721;47.402;8.550;2023-04-25T06:01:45;95468;;;11.59;48.84
2711;BME280;20721;47.402;8.550;2023-04-25T06:02:45;95469;;;11.51;49.01
2711;BME280;20721;47.402;8.550;2023-04-25T06:03:45;95464;;;11.49;48.85
2711;BME280;20721;47.402;8.550;2023-04-25T06:04:45;95473;;;11.34;48.56
2711;BME280;20721;47.402;8.550;2023-04-25T06:05:44;95466;;;11.10;48.18
2711;BME280;20721;47.402;8.550;2023-04-25T06:06:45;95477;;;11.00;48.24
2711;BME280;20721;47.402;8.550;2023-04-25T06:07:44;95483;;;10.91;48.74
2711;BME280;20721;47.402;8.550;2023-04-25T06:08:45;95484;;;10.86;48.84
2711;BME280;20721;47.402;8.550;2023-04-25T06:10:44;95487;;;10.94;49.35
2711;BME280;20721;47.402;8.550;2023-04-25T06:11:44;95486;;;10.99;49.26
2711;BME280;20721;47.402;8.550;2023-04-25T06:12:45;95490;;;11.08;49.46
2711;BME280;20721;47.402;8.550;2023-04-25T06:13:45;95488;;;11.11;48.99
2711;BME280;20721;47.402;8.550;2023-04-25T06:14:44;95490;;;11.14;48.96
2711;BME280;20721;47.402;8.550;2023-04-25T06:15:45;95493;;;11.18;48.95
2711;BME280;20721;47.402;8.550;2023-04-25T06:16:44;95492;;;11.25;48.74
2711;BME280;20721;47.402;8.550;2023-04-25T06:17:44;95495;;;11.31;48.80
2711;BME280;20721;47.402;8.550;2023-04-25T06:18:44;95497;;;11.37;48.64
2711;BME280;20721;47.402;8.550;2023-04-25T06:19:44;95502;;;11.40;48.56
2711;BME280;20721;47.402;8.550;2023-04-25T06:20:44;95504;;;11.38;48.99
2711;BME280;20721;47.402;8.550;2023-04-25T06:21:44;95504;;;11.32;49.06
2711;BME280;20721;47.402;8.550;2023-04-25T06:22:44;95511;;;11.36;49.02
2711;BME280;20721;47.402;8.550;2023-04-25T06:23:45;95509;;;11.35;49.42
2711;BME280;20721;47.402;8.550;2023-04-25T06:24:45;95516;;;11.33;49.72
2711;BME280;20721;47.402;8.550;2023-04-25T06:25:44;95517;;;11.28;50.49
2711;BME280;20721;47.402;8.550;2023-04-25T06:26:44;95524;;;11.19;51.60
2711;BME280;20721;47.402;8.550;2023-04-25T06:27:44;95529;;;11.14;51.54
2711;BME280;20721;47.402;8.550;2023-04-25T06:28:44;95525;;;11.06;52.25
2711;BME280;20721;47.402;8.550;2023-04-25T06:29:45;95536;;;11.02;52.46
2711;BME280;20721;47.402;8.550;2023-04-25T06:30:45;95532;;;10.89;53.15
2711;BME280;20721;47.402;8.550;2023-04-25T06:31:45;95550;;;10.71;53.32
2711;BME280;20721;47.402;8.550;2023-04-25T06:32:45;95548;;;10.54;54.47
2711;BME280;20721;47.402;8.550;2023-04-25T06:33:44;95551;;;10.47;54.75
2711;BME280;20721;47.402;8.550;2023-04-25T06:35:45;95553;;;10.44;56.68